sensor_id;sensor_type;location;lat;lon;timestamp;pressure;altitude;pressure_sealevel;temperature;humidity
29045;BME280;16133;49.486;12.176;2023-02-28T00:00:33;98274.84;;;-6.01;100.00
29045;BME280;16133;49.486;12.176;2023-02-28T00:02:59;98273.13;;;-6.00;100.00
29045;BME280;16133;49.486;12.176;2023-02-28T00:05:26;98267.91;;;-5.99;100.00
29045;BME280;16133;49.486;12.176;2023-02-28T00:07:52;98266.94;;;-5.96;100.00
29045;BME280;16133;49.486;12.176;2023-02-28T00:10:24;98266.81;;;-5.93;100.00
29045;BME280;16133;49.486;12.176;2023-02-28T00:12:50;98259.91;;;-5.93;100.00
29045;BME280;16133;49.486;12.176;2023-02-28T00:15:16;98259.91;;;-5.93;100.00
29045;BME280;16133;49.486;12.176;2023-02-28T00:17:42;98260.63;;;-5.89;100.00
29045;BME280;16133;49.486;12.176;2023-02-28T00:20:09;98256.44;;;-5.92;100.00
29045;BME280;16133;49.486;12.176;2023-02-28T00:22:35;98260.88;;;-5.95;100.00
29045;BME280;16133;49.486;12.176;2023-02-28T00:25:01;98249.09;;;-6.02;100.00
29045;BME280;16133;49.486;12.176;2023-02-28T00:27:27;98255.94;;;-6.01;100.00
29045;BME280;16133;49.486;12.176;2023-02-28T00:29:52;98255.16;;;-6.03;100.00
29045;BME280;16133;49.486;12.176;2023-02-28T00:32:19;98249.31;;;-6.08;100.00
29045;BME280;16133;49.486;12.176;2023-02-28T00:34:44;98215.75;;;-6.32;100.00
29045;BME280;16133;49.486;12.176;2023-02-28T00:37:10;98251.25;;;-6.13;100.00
29045;BME280;16133;49.486;12.176;2023-02-28T00:39:38;98240.56;;;-6.28;100.00
29045;BME280;16133;49.486;12.176;2023-02-28T00:42:03;98214.72;;;-6.51;100.00
29045;BME280;16133;49.486;12.176;2023-02-28T00:44:30;98242.75;;;-6.40;100.00
29045;BME280;16133;49.486;12.176;2023-02-28T00:46:56;98234.03;;;-6.61;100.00
29045;BME280;16133;49.486;12.176;2023-02-28T00:49:22;98246.84;;;-6.58;100.00
29045;BME280;16133;49.486;12.176;2023-02-28T00:51:47;98246.47;;;-6.72;100.00
29045;BME280;16133;49.486;12.176;2023-02-28T00:54:12;98206.84;;;-6.94;100.00
29045;BME280;16133;49.486;12.176;2023-02-28T00:56:38;98238.47;;;-6.89;100.00
29045;BME280;16133;49.486;12.176;2023-02-28T00:59:03;98219.75;;;-6.94;100.00
29045;BME280;16133;49.486;12.176;2023-02-28T01:01:29;98185.16;;;-7.13;100.00
29045;BME280;16133;49.486;12.176;2023-02-28T01:03:54;98221.53;;;-6.96;100.00
29045;BME280;16133;49.486;12.176;2023-02-28T01:06:19;98205.47;;;-7.04;100.00
29045;BME280;16133;49.486;12.176;2023-02-28T01:08:45;98229.69;;;-6.84;100.00
29045;BME280;16133;49.486;12.176;2023-02-28T01:11:12;98204.09;;;-6.90;100.00
29045;BME280;16133;49.486;12.176;2023-02-28T01:13:38;98208.63;;;-6.96;100.00
29045;BME280;16133;49.486;12.176;2023-02-28T01:16:03;98225.56;;;-6.89;100.00
29045;BME280;16133;49.486;12.176;2023-02-28T01:18:29;98198.78;;;-7.10;100.00
29045;BME280;16133;49.486;12.176;2023-02-28T01:20:54;98202.78;;;-7.01;100.00
29045;BME280;16133;49.486;12.176;2023-02-28T01:23:20;98191.69;;;-7.03;100.00
29045;BME280;16133;49.486;12.176;2023-02-28T01:25:48;98194.22;;;-7.02;100.00
29045;BME280;16133;49.486;12.176;2023-02-28T01:28:13;98191.38;;;-6.94;100.00
29045;BME280;16133;49.486;12.176;2023-02-28T01:30:39;98212.47;;;-6.83;100.00
29045;BME280;16133;49.486;12.176;2023-02-28T01:33:04;98196.34;;;-6.90;100.00
29045;BME280;16133;49.486;12.176;2023-02-28T01:35:32;98205.63;;;-6.84;100.00
29045;BME280;16133;49.486;12.176;2023-02-28T01:37:58;98206.41;;;-6.82;100.00
29045;BME280;16133;49.486;12.176;2023-02-28T01:40:23;98125.47;;;-7.28;100.00
29045;BME280;16133;49.486;12.176;2023-02-28T01:42:49;98170.06;;;-6.99;100.00
29045;BME280;16133;49.486;12.176;2023-02-28T01:47:48;98157.88;;;-6.96;100.00
29045;BME280;16133;49.486;12.176;2023-02-28T01:50:19;98189.28;;;-6.60;100.00
29045;BME280;16133;49.486;12.176;2023-02-28T01:52:47;98196.47;;;-6.45;100.00
29045;BME280;16133;49.486;12.176;2023-02-28T01:55:15;98188.44;;;-6.37;100.00
29045;BME280;16133;49.486;12.176;2023-02-28T01:57:46;98188.06;;;-6.28;100.00
29045;BME280;16133;49.486;12.176;2023-02-28T02:00:15;98176.00;;;-6.28;100.00
29045;BME280;16133;49.486;12.176;2023-02-28T02:02:43;98180.16;;;-6.23;100.00
29045;BME280;16133;49.486;12.176;2023-02-28T02:05:16;98177.38;;;-6.17;100.00
29045;BME280;16133;49.486;12.176;2023-02-28T02:07:45;98180.97;;;-6.21;100.00
29045;BME280;16133;49.486;12.176;2023-02-28T02:10:15;98175.97;;;-6.26;100.00
29045;BME280;16133;49.486;12.176;2023-02-28T02:15:16;98177.88;;;-6.31;100.00
29045;BME280;16133;49.486;12.176;2023-02-28T02:17:45;98183.31;;;-6.39;100.00
29045;BME280;16133;49.486;12.176;2023-02-28T02:23:20;98175.06;;;-6.25;100.00
29045;BME280;16133;49.486;12.176;2023-02-28T02:31:47;98156.94;;;-6.47;100.00
29045;BME280;16133;49.486;12.176;2023-02-28T02:40:13;98160.31;;;-6.45;100.00
29045;BME280;16133;49.486;12.176;2023-02-28T02:42:51;98148.44;;;-6.49;100.00
29045;BME280;16133;49.486;12.176;2023-02-28T02:45:20;98149.88;;;-6.42;100.00
29045;BME280;16133;49.486;12.176;2023-02-28T02:47:47;98109.50;;;-6.66;100.00
29045;BME280;16133;49.486;12.176;2023-02-28T02:50:23;98108.75;;;-6.69;100.00
29045;BME280;16133;49.486;12.176;2023-02-28T02:52:53;98155.09;;;-6.43;100.00
29045;BME280;16133;49.486;12.176;2023-02-28T02:55:21;98130.09;;;-6.64;100.00
29045;BME280;16133;49.486;12.176;2023-02-28T02:57:52;98154.31;;;-6.45;100.00
29045;BME280;16133;49.486;12.176;2023-02-28T03:00:23;98108.00;;;-6.71;100.00
29045;BME280;16133;49.486;12.176;2023-02-28T03:02:52;98156.06;;;-6.46;100.00
29045;BME280;16133;49.486;12.176;2023-02-28T03:05:23;98163.84;;;-6.47;100.00
29045;BME280;16133;49.486;12.176;2023-02-28T03:07:50;98159.59;;;-6.48;100.00
29045;BME280;16133;49.486;12.176;2023-02-28T03:10:28;98155.09;;;-6.43;100.00
29045;BME280;16133;49.486;12.176;2023-02-28T03:13:04;98165.03;;;-6.33;100.00
29045;BME280;16133;49.486;12.176;2023-02-28T03:15:57;98163.22;;;-6.31;100.00
29045;BME280;16133;49.486;12.176;2023-02-28T03:24:03;98136.88;;;-6.62;100.00
29045;BME280;16133;49.486;12.176;2023-02-28T03:26:31;98163.22;;;-6.54;100.00
29045;BME280;16133;49.486;12.176;2023-02-28T03:29:12;98156.47;;;-6.56;100.00
29045;BME280;16133;49.486;12.176;2023-02-28T03:32:13;98153.34;;;-6.66;100.00
29045;BME280;16133;49.486;12.176;2023-02-28T03:34:43;98095.53;;;-7.07;100.00
29045;BME280;16133;49.486;12.176;2023-02-28T03:37:17;98150.00;;;-6.68;100.00
29045;BME280;16133;49.486;12.176;2023-02-28T03:39:47;98162.38;;;-6.54;100.00
29045;BME280;16133;49.486;12.176;2023-02-28T03:42:27;98126.50;;;-6.60;100.00
29045;BME280;16133;49.486;12.176;2023-02-28T03:44:59;98149.44;;;-6.53;100.00
29045;BME280;16133;49.486;12.176;2023-02-28T03:47:33;98160.97;;;-6.40;100.00
29045;BME280;16133;49.486;12.176;2023-02-28T03:52:38;98124.53;;;-6.54;100.00
29045;BME280;16133;49.486;12.176;2023-02-28T03:55:10;98135.44;;;-6.47;100.00
29045;BME280;16133;49.486;12.176;2023-02-28T03:57:40;98147.91;;;-6.35;100.00
29045;BME280;16133;49.486;12.176;2023-02-28T04:00:16;98171.09;;;-6.12;100.00
29045;BME280;16133;49.486;12.176;2023-02-28T04:02:44;98154.88;;;-6.15;100.00
29045;BME280;16133;49.486;12.176;2023-02-28T04:05:10;98146.84;;;-6.30;100.00
29045;BME280;16133;49.486;12.176;2023-02-28T04:07:36;98119.19;;;-6.49;100.00
29045;BME280;16133;49.486;12.176;2023-02-28T04:10:01;98124.94;;;-6.43;100.00
29045;BME280;16133;49.486;12.176;2023-02-28T04:12:26;98160.22;;;-6.20;100.00
29045;BME280;16133;49.486;12.176;2023-02-28T04:14:52;98163.06;;;-6.26;100.00
29045;BME280;16133;49.486;12.176;2023-02-28T04:17:17;98140.56;;;-6.46;100.00
29045;BME280;16133;49.486;12.176;2023-02-28T04:19:43;98149.31;;;-6.50;100.00
29045;BME280;16133;49.486;12.176;2023-02-28T04:22:09;98159.69;;;-6.51;100.00
29045;BME280;16133;49.486;12.176;2023-02-28T04:24:35;98186.56;;;-6.34;100.00
29045;BME280;16133;49.486;12.176;2023-02-28T04:27:00;98161.78;;;-6.38;100.00
29045;BME280;16133;49.486;12.176;2023-02-28T04:29:27;98181.69;;;-6.18;100.00
29045;BME280;16133;49.486;12.176;2023-02-28T04:31:53;98183.25;;;-6.14;100.00
29045;BME280;16133;49.486;12.176;2023-02-28T04:34:20;98157.03;;;-6.26;100.00
29045;BME280;16133;49.486;12.176;2023-02-28T04:36:46;98171.56;;;-6.24;100.00
29045;BME280;16133;49.486;12.176;2023-02-28T04:39:14;98138.88;;;-6.47;100.00
29045;BME280;16133;49.486;12.176;2023-02-28T04:41:39;98144.84;;;-6.45;100.00
29045;BME280;16133;49.486;12.176;2023-02-28T04:44:05;98180.03;;;-6.20;100.00
29045;BME280;16133;49.486;12.176;2023-02-28T04:46:30;98171.63;;;-6.25;100.00
29045;BME280;16133;49.486;12.176;2023-02-28T04:48:55;98176.22;;;-6.10;100.00
29045;BME280;16133;49.486;12.176;2023-02-28T04:51:21;98143.97;;;-6.22;100.00
29045;BME280;16133;49.486;12.176;2023-02-28T04:53:47;98173.03;;;-5.95;100.00
29045;BME280;16133;49.486;12.176;2023-02-28T04:56:15;98169.88;;;-5.82;100.00
29045;BME280;16133;49.486;12.176;2023-02-28T04:58:41;98173.06;;;-5.75;100.00
29045;BME280;16133;49.486;12.176;2023-02-28T05:03:40;98160.38;;;-5.81;100.00
29045;BME280;16133;49.486;12.176;2023-02-28T05:06:06;98194.63;;;-5.54;100.00
29045;BME280;16133;49.486;12.176;2023-02-28T05:08:32;98172.06;;;-5.51;100.00
29045;BME280;16133;49.486;12.176;2023-02-28T05:10:58;98186.41;;;-5.44;100.00
29045;BME280;16133;49.486;12.176;2023-02-28T05:13:25;98137.06;;;-5.80;100.00
29045;BME280;16133;49.486;12.176;2023-02-28T05:15:50;98192.16;;;-5.57;100.00
29045;BME280;16133;49.486;12.176;2023-02-28T05:18:16;98176.69;;;-5.59;100.00
29045;BME280;16133;49.486;12.176;2023-02-28T05:20:41;98180.78;;;-5.53;100.00
29045;BME280;16133;49.486;12.176;2023-02-28T05:23:10;98196.59;;;-5.39;100.00
29045;BME280;16133;49.486;12.176;2023-02-28T05:25:36;98179.94;;;-5.54;100.00
29045;BME280;16133;49.486;12.176;2023-02-28T05:28:01;98169.22;;;-5.65;100.00
29045;BME280;16133;49.486;12.176;2023-02-28T05:30:26;98190.03;;;-5.48;100.00
29045;BME280;16133;49.486;12.176;2023-02-28T05:32:52;98171.53;;;-5.59;100.00
29045;BME280;16133;49.486;12.176;2023-02-28T05:35:17;98197.38;;;-5.59;100.00
29045;BME280;16133;49.486;12.176;2023-02-28T05:37:43;98195.28;;;-5.71;100.00
29045;BME280;16133;49.486;12.176;2023-02-28T05:40:09;98212.19;;;-5.62;100.00
29045;BME280;16133;49.486;12.176;2023-02-28T05:42:35;98212.41;;;-5.47;100.00
29045;BME280;16133;49.486;12.176;2023-02-28T05:45:01;98210.72;;;-5.48;100.00
29045;BME280;16133;49.486;12.176;2023-02-28T05:47:26;98172.38;;;-5.58;100.00
29045;BME280;16133;49.486;12.176;2023-02-28T05:49:51;98191.97;;;-5.53;100.00
29045;BME280;16133;49.486;12.176;2023-02-28T05:52:17;98194.63;;;-5.54;100.00
29045;BME280;16133;49.486;12.176;2023-02-28T05:54:42;98227.31;;;-5.32;100.00
29045;BME280;16133;49.486;12.176;2023-02-28T05:57:07;98201.72;;;-5.17;100.00
29045;BME280;16133;49.486;12.176;2023-02-28T05:59:33;98224.38;;;-5.02;100.00
29045;BME280;16133;49.486;12.176;2023-02-28T06:01:58;98226.50;;;-5.12;100.00
29045;BME280;16133;49.486;12.176;2023-02-28T06:04:24;98192.19;;;-5.37;100.00
29045;BME280;16133;49.486;12.176;2023-02-28T06:06:50;98234.78;;;-5.04;100.00
29045;BME280;16133;49.486;12.176;2023-02-28T06:09:15;98238.22;;;-5.03;100.00
29045;BME280;16133;49.486;12.176;2023-02-28T06:11:41;98228.09;;;-5.09;100.00
29045;BME280;16133;49.486;12.176;2023-02-28T06:14:06;98224.69;;;-5.10;100.00
29045;BME280;16133;49.486;12.176;2023-02-28T06:16:33;98245.69;;;-4.97;100.00
29045;BME280;16133;49.486;12.176;2023-02-28T06:19:02;98234.13;;;-5.09;100.00
29045;BME280;16133;49.486;12.176;2023-02-28T06:21:28;98210.69;;;-5.26;100.00
29045;BME280;16133;49.486;12.176;2023-02-28T06:23:54;98256.31;;;-5.03;100.00
29045;BME280;16133;49.486;12.176;2023-02-28T06:26:20;98245.78;;;-4.99;100.00
29045;BME280;16133;49.486;12.176;2023-02-28T06:28:46;98254.84;;;-4.89;100.00
29045;BME280;16133;49.486;12.176;2023-02-28T06:31:14;98257.25;;;-4.64;100.00
29045;BME280;16133;49.486;12.176;2023-02-28T06:33:41;98252.81;;;-4.42;100.00
29045;BME280;16133;49.486;12.176;2023-02-28T06:38:35;98255.72;;;-3.92;100.00
29045;BME280;16133;49.486;12.176;2023-02-28T06:41:01;98263.34;;;-3.70;100.00
29045;BME280;16133;49.486;12.176;2023-02-28T06:43:34;98248.19;;;-3.60;100.00
29045;BME280;16133;49.486;12.176;2023-02-28T06:46:01;98262.38;;;-3.31;100.00
29045;BME280;16133;49.486;12.176;2023-02-28T06:48:27;98265.16;;;-3.17;100.00
29045;BME280;16133;49.486;12.176;2023-02-28T06:51:08;98270.53;;;-3.03;100.00
29045;BME280;16133;49.486;12.176;2023-02-28T06:53:35;98273.25;;;-3.06;100.00
29045;BME280;16133;49.486;12.176;2023-02-28T06:56:06;98273.41;;;-3.09;100.00
29045;BME280;16133;49.486;12.176;2023-02-28T06:58:32;98267.00;;;-3.02;100.00
29045;BME280;16133;49.486;12.176;2023-02-28T07:00:58;98279.97;;;-3.02;100.00
29045;BME280;16133;49.486;12.176;2023-02-28T07:03:23;98279.06;;;-3.01;100.00
29045;BME280;16133;49.486;12.176;2023-02-28T07:05:49;98280.75;;;-2.83;100.00
29045;BME280;16133;49.486;12.176;2023-02-28T07:08:14;98284.34;;;-2.85;100.00
29045;BME280;16133;49.486;12.176;2023-02-28T07:10:41;98289.34;;;-2.81;100.00
29045;BME280;16133;49.486;12.176;2023-02-28T07:13:07;98284.59;;;-2.73;100.00
29045;BME280;16133;49.486;12.176;2023-02-28T07:15:34;98287.50;;;-2.62;100.00
29045;BME280;16133;49.486;12.176;2023-02-28T07:17:59;98282.22;;;-2.77;100.00
29045;BME280;16133;49.486;12.176;2023-02-28T07:20:25;98292.47;;;-2.74;100.00
29045;BME280;16133;49.486;12.176;2023-02-28T07:22:50;98286.88;;;-2.67;100.00
29045;BME280;16133;49.486;12.176;2023-02-28T07:25:28;98289.09;;;-2.59;99.22
29045;BME280;16133;49.486;12.176;2023-02-28T07:27:54;98299.03;;;-2.67;98.88
29045;BME280;16133;49.486;12.176;2023-02-28T07:30:20;98284.41;;;-2.53;98.86
29045;BME280;16133;49.486;12.176;2023-02-28T07:32:45;98288.25;;;-2.43;97.29
29045;BME280;16133;49.486;12.176;2023-02-28T07:35:11;98288.16;;;-2.41;95.34
29045;BME280;16133;49.486;12.176;2023-02-28T07:37:37;98287.00;;;-2.35;94.71
29045;BME280;16133;49.486;12.176;2023-02-28T07:40:08;98292.03;;;-2.32;93.76
29045;BME280;16133;49.486;12.176;2023-02-28T07:42:35;98290.34;;;-2.33;94.59
29045;BME280;16133;49.486;12.176;2023-02-28T07:45:01;98290.13;;;-2.12;92.60
29045;BME280;16133;49.486;12.176;2023-02-28T07:47:28;98295.88;;;-2.22;93.75
29045;BME280;16133;49.486;12.176;2023-02-28T07:49:54;98289.34;;;-2.14;91.87
29045;BME280;16133;49.486;12.176;2023-02-28T07:52:20;98293.84;;;-2.17;93.15
29045;BME280;16133;49.486;12.176;2023-02-28T07:54:45;98300.69;;;-2.15;93.73
29045;BME280;16133;49.486;12.176;2023-02-28T07:57:10;98303.00;;;-2.10;93.08
29045;BME280;16133;49.486;12.176;2023-02-28T07:59:36;98303.00;;;-1.93;90.62
29045;BME280;16133;49.486;12.176;2023-02-28T08:02:02;98300.44;;;-1.95;91.01
29045;BME280;16133;49.486;12.176;2023-02-28T08:04:27;98297.69;;;-1.92;91.01
29045;BME280;16133;49.486;12.176;2023-02-28T08:06:53;98296.09;;;-1.94;90.85
29045;BME280;16133;49.486;12.176;2023-02-28T08:09:19;98300.28;;;-1.92;91.33
29045;BME280;16133;49.486;12.176;2023-02-28T08:11:45;98295.94;;;-1.91;91.39
29045;BME280;16133;49.486;12.176;2023-02-28T08:14:10;98306.09;;;-1.86;91.02
29045;BME280;16133;49.486;12.176;2023-02-28T08:16:36;98291.97;;;-1.65;85.91
29045;BME280;16133;49.486;12.176;2023-02-28T08:19:02;98279.44;;;-1.59;83.12
29045;BME280;16133;49.486;12.176;2023-02-28T08:21:27;98302.19;;;-1.47;82.83
29045;BME280;16133;49.486;12.176;2023-02-28T08:23:53;98305.56;;;-1.45;83.65
29045;BME280;16133;49.486;12.176;2023-02-28T08:26:19;98304.56;;;-1.42;84.58
29045;BME280;16133;49.486;12.176;2023-02-28T08:28:44;98294.47;;;-1.32;81.38
29045;BME280;16133;49.486;12.176;2023-02-28T08:31:11;98314.13;;;-1.27;81.13
29045;BME280;16133;49.486;12.176;2023-02-28T08:33:38;98295.47;;;-1.19;80.70
29045;BME280;16133;49.486;12.176;2023-02-28T08:36:05;98288.41;;;-1.17;80.40
29045;BME280;16133;49.486;12.176;2023-02-28T08:38:31;98296.16;;;-1.16;80.05
29045;BME280;16133;49.486;12.176;2023-02-28T08:40:58;98299.25;;;-1.09;79.74
29045;BME280;16133;49.486;12.176;2023-02-28T08:43:24;98297.66;;;-1.12;78.59
29045;BME280;16133;49.486;12.176;2023-02-28T08:45:54;98292.75;;;-1.02;78.81
29045;BME280;16133;49.486;12.176;2023-02-28T08:48:19;98302.06;;;-0.98;77.87
29045;BME280;16133;49.486;12.176;2023-02-28T08:50:57;98312.91;;;-0.90;77.23
29045;BME280;16133;49.486;12.176;2023-02-28T08:53:22;98296.78;;;-0.97;78.02
29045;BME280;16133;49.486;12.176;2023-02-28T08:55:58;98297.63;;;-0.96;79.08
29045;BME280;16133;49.486;12.176;2023-02-28T08:58:24;98306.00;;;-0.91;79.06
29045;BME280;16133;49.486;12.176;2023-02-28T09:00:50;98309.88;;;-0.82;79.23
29045;BME280;16133;49.486;12.176;2023-02-28T09:03:15;98310.72;;;-0.82;80.29
29045;BME280;16133;49.486;12.176;2023-02-28T09:05:51;98280.47;;;-0.84;78.73
29045;BME280;16133;49.486;12.176;2023-02-28T09:08:17;98302.09;;;-0.68;77.58
29045;BME280;16133;49.486;12.176;2023-02-28T09:10:42;98305.28;;;-0.63;76.23
29045;BME280;16133;49.486;12.176;2023-02-28T09:13:07;98290.13;;;-0.57;77.06
29045;BME280;16133;49.486;12.176;2023-02-28T09:15:33;98295.25;;;-0.55;77.92
29045;BME280;16133;49.486;12.176;2023-02-28T09:17:58;98297.81;;;-0.39;75.98
29045;BME280;16133;49.486;12.176;2023-02-28T09:20:23;98297.22;;;-0.44;75.07
29045;BME280;16133;49.486;12.176;2023-02-28T09:22:49;98296.19;;;-0.42;74.92
29045;BME280;16133;49.486;12.176;2023-02-28T09:25:14;98295.66;;;-0.47;74.10
29045;BME280;16133;49.486;12.176;2023-02-28T09:27:39;98286.16;;;-0.34;75.50
29045;BME280;16133;49.486;12.176;2023-02-28T09:30:05;98295.84;;;-0.36;74.51
29045;BME280;16133;49.486;12.176;2023-02-28T09:32:31;98292.03;;;-0.30;74.90
29045;BME280;16133;49.486;12.176;2023-02-28T09:34:56;98298.75;;;-0.26;74.29
29045;BME280;16133;49.486;12.176;2023-02-28T09:37:22;98293.44;;;-0.25;74.70
29045;BME280;16133;49.486;12.176;2023-02-28T09:39:48;98294.88;;;-0.19;74.84
29045;BME280;16133;49.486;12.176;2023-02-28T09:42:21;98296.53;;;-0.18;74.60
29045;BME280;16133;49.486;12.176;2023-02-28T09:44:51;98289.09;;;-0.10;74.80
29045;BME280;16133;49.486;12.176;2023-02-28T09:47:28;98295.13;;;0.05;74.74
29045;BME280;16133;49.486;12.176;2023-02-28T09:49:57;98297.22;;;-0.01;74.37
29045;BME280;16133;49.486;12.176;2023-02-28T09:52:31;98298.06;;;0.00;72.12
29045;BME280;16133;49.486;12.176;2023-02-28T09:57:42;98291.53;;;0.07;73.46
29045;BME280;16133;49.486;12.176;2023-02-28T10:05:24;98295.78;;;0.08;72.24
29045;BME280;16133;49.486;12.176;2023-02-28T10:08:10;98301.78;;;0.10;73.03
29045;BME280;16133;49.486;12.176;2023-02-28T10:10:45;98300.00;;;0.11;72.30
29045;BME280;16133;49.486;12.176;2023-02-28T10:13:26;98292.63;;;0.17;72.47
29045;BME280;16133;49.486;12.176;2023-02-28T10:16:06;98308.09;;;0.20;71.02
29045;BME280;16133;49.486;12.176;2023-02-28T10:18:46;98309.59;;;0.10;72.33
29045;BME280;16133;49.486;12.176;2023-02-28T10:21:29;98306.59;;;0.16;73.32
29045;BME280;16133;49.486;12.176;2023-02-28T10:24:11;98309.22;;;0.30;72.80
29045;BME280;16133;49.486;12.176;2023-02-28T10:26:40;98304.75;;;0.32;72.10
29045;BME280;16133;49.486;12.176;2023-02-28T10:29:09;98300.63;;;0.28;72.20
29045;BME280;16133;49.486;12.176;2023-02-28T10:31:35;98302.97;;;0.33;72.05
29045;BME280;16133;49.486;12.176;2023-02-28T10:34:00;98314.44;;;0.30;71.21
29045;BME280;16133;49.486;12.176;2023-02-28T10:36:26;98303.53;;;0.24;72.39
29045;BME280;16133;49.486;12.176;2023-02-28T10:38:53;98305.41;;;0.22;73.03
29045;BME280;16133;49.486;12.176;2023-02-28T10:41:31;98307.75;;;0.26;73.70
29045;BME280;16133;49.486;12.176;2023-02-28T10:44:22;98298.19;;;0.39;72.63
29045;BME280;16133;49.486;12.176;2023-02-28T10:46:48;98307.81;;;0.53;72.37
29045;BME280;16133;49.486;12.176;2023-02-28T10:49:27;98309.38;;;0.56;73.25
29045;BME280;16133;49.486;12.176;2023-02-28T10:51:56;98298.91;;;0.70;71.81
29045;BME280;16133;49.486;12.176;2023-02-28T10:54:35;98308.41;;;0.71;73.89
29045;BME280;16133;49.486;12.176;2023-02-28T10:57:19;98308.41;;;0.71;74.02
29045;BME280;16133;49.486;12.176;2023-02-28T10:59:45;98310.09;;;0.72;73.03
29045;BME280;16133;49.486;12.176;2023-02-28T11:02:35;98311.31;;;0.66;72.99
29045;BME280;16133;49.486;12.176;2023-02-28T11:05:01;98305.06;;;0.69;73.14
29045;BME280;16133;49.486;12.176;2023-02-28T11:07:27;98312.72;;;0.72;74.17
29045;BME280;16133;49.486;12.176;2023-02-28T11:09:54;98308.84;;;0.77;72.75
29045;BME280;16133;49.486;12.176;2023-02-28T11:14:52;98305.97;;;0.82;73.19
29045;BME280;16133;49.486;12.176;2023-02-28T11:17:26;98308.72;;;0.93;73.24
29045;BME280;16133;49.486;12.176;2023-02-28T11:19:58;98312.31;;;1.05;71.40
29045;BME280;16133;49.486;12.176;2023-02-28T11:22:28;98317.34;;;1.08;70.77
29045;BME280;16133;49.486;12.176;2023-02-28T11:25:01;98319.28;;;1.18;72.03
29045;BME280;16133;49.486;12.176;2023-02-28T11:29:56;98309.91;;;1.28;69.47
29045;BME280;16133;49.486;12.176;2023-02-28T11:32:26;98302.56;;;1.21;71.57
29045;BME280;16133;49.486;12.176;2023-02-28T11:35:19;98312.72;;;1.25;71.50
29045;BME280;16133;49.486;12.176;2023-02-28T11:37:47;98312.53;;;1.28;70.53
29045;BME280;16133;49.486;12.176;2023-02-28T11:51:47;98316.34;;;1.10;69.20
29045;BME280;16133;49.486;12.176;2023-02-28T11:56:55;98297.63;;;0.89;71.15
29045;BME280;16133;49.486;12.176;2023-02-28T11:59:36;98297.19;;;0.83;70.34
29045;BME280;16133;49.486;12.176;2023-02-28T12:10:06;98311.19;;;1.09;69.25
29045;BME280;16133;49.486;12.176;2023-02-28T12:13:16;98306.66;;;0.98;69.80
29045;BME280;16133;49.486;12.176;2023-02-28T12:29:04;98304.25;;;1.22;69.34
29045;BME280;16133;49.486;12.176;2023-02-28T12:31:36;98299.88;;;1.22;70.84
29045;BME280;16133;49.486;12.176;2023-02-28T12:34:07;98295.91;;;1.29;70.00
29045;BME280;16133;49.486;12.176;2023-02-28T12:36:36;98298.84;;;1.37;70.14
29045;BME280;16133;49.486;12.176;2023-02-28T12:39:09;98286.72;;;1.36;69.59
29045;BME280;16133;49.486;12.176;2023-02-28T12:41:41;98290.69;;;1.42;71.12
29045;BME280;16133;49.486;12.176;2023-02-28T12:46:53;98285.91;;;1.49;69.47
29045;BME280;16133;49.486;12.176;2023-02-28T12:49:41;98288.63;;;1.47;69.50
29045;BME280;16133;49.486;12.176;2023-02-28T12:52:11;98281.94;;;1.56;69.43
29045;BME280;16133;49.486;12.176;2023-02-28T12:55:05;98282.25;;;1.51;69.66
29045;BME280;16133;49.486;12.176;2023-02-28T12:57:41;98280.97;;;1.44;68.11
29045;BME280;16133;49.486;12.176;2023-02-28T13:00:13;98239.41;;;1.27;68.77
29045;BME280;16133;49.486;12.176;2023-02-28T13:02:55;98280.69;;;1.49;68.06
29045;BME280;16133;49.486;12.176;2023-02-28T13:08:23;98268.13;;;1.41;68.97
29045;BME280;16133;49.486;12.176;2023-02-28T13:10:53;98278.44;;;1.42;67.22
29045;BME280;16133;49.486;12.176;2023-02-28T13:13:30;98271.03;;;1.36;69.20
29045;BME280;16133;49.486;12.176;2023-02-28T13:21:06;98269.47;;;1.47;69.68
29045;BME280;16133;49.486;12.176;2023-02-28T13:23:56;98275.97;;;1.54;68.52
29045;BME280;16133;49.486;12.176;2023-02-28T13:34:38;98263.31;;;1.48;68.79
29045;BME280;16133;49.486;12.176;2023-02-28T13:47:41;98273.97;;;1.57;69.07
29045;BME280;16133;49.486;12.176;2023-02-28T14:03:50;98260.41;;;1.65;67.47
29045;BME280;16133;49.486;12.176;2023-02-28T14:08:55;98261.84;;;1.69;68.77
29045;BME280;16133;49.486;12.176;2023-02-28T14:11:36;98268.56;;;1.73;69.04
29045;BME280;16133;49.486;12.176;2023-02-28T14:14:05;98260.59;;;1.74;68.13
29045;BME280;16133;49.486;12.176;2023-02-28T14:19:14;98259.47;;;1.78;68.98
29045;BME280;16133;49.486;12.176;2023-02-28T14:22:34;98255.47;;;1.73;69.20
29045;BME280;16133;49.486;12.176;2023-02-28T14:25:31;98256.94;;;1.77;67.98
29045;BME280;16133;49.486;12.176;2023-02-28T14:28:23;98260.09;;;1.82;67.52
29045;BME280;16133;49.486;12.176;2023-02-28T14:36:39;98250.56;;;1.81;68.80
29045;BME280;16133;49.486;12.176;2023-02-28T14:39:16;98254.13;;;1.80;67.62
29045;BME280;16133;49.486;12.176;2023-02-28T14:41:44;98250.78;;;1.78;68.05
29045;BME280;16133;49.486;12.176;2023-02-28T14:46:54;98243.22;;;1.73;68.10
29045;BME280;16133;49.486;12.176;2023-02-28T14:52:14;98251.38;;;1.69;66.74
29045;BME280;16133;49.486;12.176;2023-02-28T14:54:40;98238.31;;;1.69;67.97
29045;BME280;16133;49.486;12.176;2023-02-28T14:57:23;98230.28;;;1.72;67.30
29045;BME280;16133;49.486;12.176;2023-02-28T15:00:00;98238.53;;;1.66;68.62
29045;BME280;16133;49.486;12.176;2023-02-28T15:02:31;98236.97;;;1.63;68.14
29045;BME280;16133;49.486;12.176;2023-02-28T15:05:23;98231.63;;;1.65;68.09
29045;BME280;16133;49.486;12.176;2023-02-28T15:08:11;98231.63;;;1.65;68.18
29045;BME280;16133;49.486;12.176;2023-02-28T15:10:38;98238.19;;;1.58;68.86
29045;BME280;16133;49.486;12.176;2023-02-28T15:13:07;98239.03;;;1.58;68.90
29045;BME280;16133;49.486;12.176;2023-02-28T15:16:03;98241.78;;;1.57;68.98
29045;BME280;16133;49.486;12.176;2023-02-28T15:21:19;98242.72;;;1.56;68.65
29045;BME280;16133;49.486;12.176;2023-02-28T15:23:52;98238.41;;;1.55;69.91